Terminal Aerodrome Forecast
Issued by NWS Mt. Holly, NJ

Home | Current Version | Previous Version | Text Only | Print | Product List | Glossary On
Versions: 1 2 3 4 5 6 7 8 9 10 11 12 13 14
000
FTUS41 KPHI 282325
TAFRDG
TAF
KRDG 282325Z 2900/2924 19007KT P6SM FEW050
     FM290200 VRB03KT P6SM SCT250
      TEMPO 2908/2912 4SM BR
     FM291200 21005KT P6SM SCT250
     FM291600 21007KT P6SM SCT050 BKN200
     FM292200 18005KT P6SM VCSH BKN050
      AMD NOT SKED=

USA.gov is the U.S. government's official web portal to all federal, state and local government web resources and services.